地図

経路データ

SID SEASON NUMBER BASIN SUBBASIN NAME ISO_TIME NATURE LAT LON WMO_WIND WMO_PRES WMO_AGENCY TRACK_TYPE DIST2LAND LANDFALL IFLAG USA_AGENCY USA_ATCF_ID USA_LAT USA_LON USA_RECORD USA_STATUS USA_WIND USA_PRES USA_SSHS USA_R34_NE USA_R34_SE USA_R34_SW USA_R34_NW USA_R50_NE USA_R50_SE USA_R50_SW USA_R50_NW USA_R64_NE USA_R64_SE USA_R64_SW USA_R64_NW USA_POCI USA_ROCI USA_RMW USA_EYE TOKYO_LAT TOKYO_LON TOKYO_GRADE TOKYO_WIND TOKYO_PRES TOKYO_R50_DIR TOKYO_R50_LONG TOKYO_R50_SHORT TOKYO_R30_DIR TOKYO_R30_LONG TOKYO_R30_SHORT TOKYO_LAND CMA_LAT CMA_LON CMA_CAT CMA_WIND CMA_PRES HKO_LAT HKO_LON HKO_CAT HKO_WIND HKO_PRES NEWDELHI_LAT NEWDELHI_LON NEWDELHI_GRADE NEWDELHI_WIND NEWDELHI_PRES NEWDELHI_CI NEWDELHI_DP NEWDELHI_POCI REUNION_LAT REUNION_LON REUNION_TYPE REUNION_WIND REUNION_PRES REUNION_TNUM REUNION_CI REUNION_RMW REUNION_R34_NE REUNION_R34_SE REUNION_R34_SW REUNION_R34_NW REUNION_R50_NE REUNION_R50_SE REUNION_R50_SW REUNION_R50_NW REUNION_R64_NE REUNION_R64_SE REUNION_R64_SW REUNION_R64_NW BOM_LAT BOM_LON BOM_TYPE BOM_WIND BOM_PRES BOM_TNUM BOM_CI BOM_RMW BOM_R34_NE BOM_R34_SE BOM_R34_SW BOM_R34_NW BOM_R50_NE BOM_R50_SE BOM_R50_SW BOM_R50_NW BOM_R64_NE BOM_R64_SE BOM_R64_SW BOM_R64_NW BOM_ROCI BOM_POCI BOM_EYE BOM_POS_METHOD BOM_PRES_METHOD NADI_LAT NADI_LON NADI_CAT NADI_WIND NADI_PRES WELLINGTON_LAT WELLINGTON_LON WELLINGTON_WIND WELLINGTON_PRES DS824_LAT DS824_LON DS824_STAGE DS824_WIND DS824_PRES TD9636_LAT TD9636_LON TD9636_STAGE TD9636_WIND TD9636_PRES TD9635_LAT TD9635_LON TD9635_WIND TD9635_PRES TD9635_ROCI NEUMANN_LAT NEUMANN_LON NEUMANN_CLASS NEUMANN_WIND NEUMANN_PRES MLC_LAT MLC_LON MLC_CLASS MLC_WIND MLC_PRES USA_GUST BOM_GUST BOM_GUST_PER REUNION_GUST REUNION_GUST_PER USA_SEAHGT USA_SEARAD_NE USA_SEARAD_SE USA_SEARAD_SW USA_SEARAD_NW STORM_SPEED STORM_DIR
1972258N13258 1972 96 EP MM IVA 1972-09-14 00:00:00 TS 12.8000 -102.400 30 hurdat_epa main 521 504 O________OO___ hurdat_epa EP091972 12.8000 -102.400 TD 30 -1 12.8000 -102.400 TC 30 12.8000 -102.400 1 12 301
1972258N13258 1972 96 EP MM IVA 1972-09-14 03:00:00 TS 13.0973 -102.903 main 508 496 P________PP___ EP091972 13.1028 -102.912 TD 30 -1 13.1028 -102.912 TC 30 13.0756 -102.865 1 11 302
1972258N13258 1972 96 EP MM IVA 1972-09-14 06:00:00 TS 13.3921 -103.387 30 hurdat_epa main 501 493 O________OP___ hurdat_epa EP091972 13.4000 -103.400 TD 30 -1 13.4000 -103.400 TC 30 13.3607 -103.335 1 11 303
1972258N13258 1972 96 EP MM IVA 1972-09-14 09:00:00 TS 13.6869 -103.843 main 496 479 P________PP___ EP091972 13.6923 -103.850 TD 30 -1 13.6923 -103.850 TC 30 13.6654 -103.812 1 11 304
1972258N13258 1972 96 EP MM IVA 1972-09-14 12:00:00 TS 14.0000 -104.300 30 hurdat_epa main 482 464 O________OO___ hurdat_epa EP091972 14.0000 -104.300 TD 30 -1 14.0000 -104.300 TC 30 14.0000 -104.300 1 11 306
1972258N13258 1972 96 EP MM IVA 1972-09-14 15:00:00 TS 14.3418 -104.789 main 468 441 P________PP___ EP091972 14.3349 -104.785 TD 30 -1 14.3349 -104.785 TC 30 14.3694 -104.802 1 12 306
1972258N13258 1972 96 EP MM IVA 1972-09-14 18:00:00 TS 14.7114 -105.304 30 hurdat_epa main 446 431 O________OP___ hurdat_epa EP091972 14.7000 -105.300 TD 30 -1 14.7000 -105.300 TC 30 14.7570 -105.320 1 13 307
1972258N13258 1972 96 EP MM IVA 1972-09-14 21:00:00 TS 15.1081 -105.839 main 433 430 P________PP___ EP091972 15.0999 -105.835 TD 30 -1 15.0999 -105.835 TC 30 15.1412 -105.853 1 13 307
1972258N13258 1972 96 EP MM IVA 1972-09-15 00:00:00 TS 15.5000 -106.400 30 hurdat_epa main 439 435 O________OO___ hurdat_epa EP091972 15.5000 -106.400 TD 30 -1 15.5000 -106.400 TC 30 15.5000 -106.400 1 14 304
1972258N13258 1972 96 EP MM IVA 1972-09-15 03:00:00 TS 15.8705 -107.007 main 436 436 P________PP___ EP091972 15.8800 -107.000 TD 30 -1 15.8800 -107.000 TC 30 15.8329 -107.033 1 14 300
1972258N13258 1972 96 EP MM IVA 1972-09-15 06:00:00 TS 16.1867 -107.614 30 hurdat_epa main 447 447 O________OP___ hurdat_epa EP091972 16.2000 -107.600 TD 30 -1 16.2000 -107.600 TC 30 16.1336 -107.669 1 13 296
1972258N13258 1972 96 EP MM IVA 1972-09-15 09:00:00 TS 16.4286 -108.223 main 476 476 P________PP___ EP091972 16.4376 -108.218 TD 30 -1 16.4376 -108.218 TC 30 16.3924 -108.246 1 11 292
1972258N13258 1972 96 EP MM IVA 1972-09-15 12:00:00 TS 16.6000 -108.700 30 hurdat_epa main 499 499 O________OO___ hurdat_epa EP091972 16.6000 -108.700 TD 30 -1 16.6000 -108.700 TC 30 16.6000 -108.700 1 7 293
1972258N13258 1972 96 EP MM IVA 1972-09-15 15:00:00 TS 16.7217 -108.928 main 507 507 P________PP___ EP091972 16.7147 -108.918 TD 37 0 16.7147 -108.918 TC 37 16.7493 -108.967 1 4 304
1972258N13258 1972 96 EP MM IVA 1972-09-15 18:00:00 TS 16.8103 -109.022 45 hurdat_epa main 507 507 O________OP___ hurdat_epa EP091972 16.8000 -109.000 TS 45 0 16.8000 -109.000 TC 45 16.8514 -109.109 1 3 314
1972258N13258 1972 96 EP MM IVA 1972-09-15 21:00:00 TS 16.9056 -109.126 main 508 508 P________PP___ EP091972 16.9000 -109.115 TS 45 0 16.9000 -109.115 TC 45 16.9278 -109.170 1 3 318
1972258N13258 1972 96 EP MM IVA 1972-09-16 00:00:00 TS 17.0000 -109.200 45 hurdat_epa main 510 503 O________OO___ hurdat_epa EP091972 17.0000 -109.200 TS 45 0 17.0000 -109.200 TC 45 17.0000 -109.200 2 2 326
1972258N13258 1972 96 EP MM IVA 1972-09-16 03:00:00 TS 17.1024 -109.260 main 512 506 P________PP___ EP091972 17.1000 -109.258 TS 45 0 17.1000 -109.258 TC 45 17.1121 -109.272 2 2 334
1972258N13258 1972 96 EP MM IVA 1972-09-16 06:00:00 TS 17.2045 -109.305 45 hurdat_epa main 506 500 O________OP___ hurdat_epa EP091972 17.2000 -109.300 TS 45 0 17.2000 -109.300 TC 45 17.2224 -109.323 2 2 336
1972258N13258 1972 96 EP MM IVA 1972-09-16 09:00:00 TS 17.3103 -109.352 main 508 503 P________PP___ EP091972 17.3075 -109.350 TS 45 0 17.3075 -109.350 TC 45 17.3215 -109.362 2 2 337
1972258N13258 1972 96 EP MM IVA 1972-09-16 12:00:00 TS 17.4000 -109.400 45 hurdat_epa main 503 496 O________OO___ hurdat_epa EP091972 17.4000 -109.400 TS 45 0 17.4000 -109.400 TC 45 17.4000 -109.400 2 2 331
1972258N13258 1972 96 EP MM IVA 1972-09-16 15:00:00 TS 17.4605 -109.448 main 496 496 P________PP___ EP091972 17.4650 -109.450 TS 42 0 17.4650 -109.450 TC 42 17.4425 -109.438 2 1 315
1972258N13258 1972 96 EP MM IVA 1972-09-16 18:00:00 TS 17.4930 -109.496 40 999 hurdat_epa main 505 505 O________OP___ hurdat_epa EP091972 17.5000 -109.500 TS 40 999 0 17.5000 -109.500 TC 40 999 17.4649 -109.478 2 1 294
1972258N13258 1972 96 EP MM IVA 1972-09-16 21:00:00 TS 17.4960 -109.534 main 505 505 P________PP___ EP091972 17.5000 -109.535 TS 40 0 17.5000 -109.535 TC 40 17.4800 -109.529 2 1 274
1972258N13258 1972 96 EP MM IVA 1972-09-17 00:00:00 TS 17.5000 -109.600 40 hurdat_epa main 514 514 O________OO___ hurdat_epa EP091972 17.5000 -109.600 TS 40 0 17.5000 -109.600 TC 40 17.5000 -109.600 2 2 284
1972258N13258 1972 96 EP MM IVA 1972-09-17 03:00:00 TS 17.5426 -109.735 main 523 523 P________PP___ EP091972 17.5425 -109.742 TS 40 0 17.5425 -109.742 TC 40 17.5428 -109.703 2 3 290
1972258N13258 1972 96 EP MM IVA 1972-09-17 06:00:00 TS 17.5985 -109.886 40 hurdat_epa main 535 535 O________OP___ hurdat_epa EP091972 17.6000 -109.900 TS 40 0 17.6000 -109.900 TC 40 17.5925 -109.827 2 3 293
1972258N13258 1972 96 EP MM IVA 1972-09-17 09:00:00 TS 17.6492 -109.993 main 544 538 P________PP___ EP091972 17.6500 -110.000 TS 37 0 17.6500 -110.000 TC 37 17.6460 -109.963 2 2 296
1972258N13258 1972 96 EP MM IVA 1972-09-17 12:00:00 TS 17.7000 -110.100 35 hurdat_epa main 548 548 O________OO___ hurdat_epa EP091972 17.7000 -110.100 TS 35 0 17.7000 -110.100 TC 35 17.7000 -110.100 2 3 293
1972258N13258 1972 96 EP MM IVA 1972-09-17 15:00:00 TS 17.7492 -110.243 main 557 557 P________PP___ EP091972 17.7500 -110.250 TS 35 0 17.7500 -110.250 TC 35 17.7459 -110.217 2 3 290
1972258N13258 1972 96 EP MM IVA 1972-09-17 18:00:00 TS 17.7985 -110.387 35 1001 hurdat_epa main 571 571 O________OP___ hurdat_epa EP091972 17.8000 -110.400 TS 35 1001 0 17.8000 -110.400 TC 35 1001 17.7924 -110.335 2 3 293
1972258N13258 1972 96 EP MM IVA 1972-09-17 21:00:00 TS 17.8485 -110.492 main 572 561 P________PP___ EP091972 17.8500 -110.500 TS 35 0 17.8500 -110.500 TC 35 17.8427 -110.461 2 2 297
1972258N13258 1972 96 EP MM IVA 1972-09-18 00:00:00 TS 17.9000 -110.600 35 hurdat_epa main 562 562 O________OO___ hurdat_epa EP091972 17.9000 -110.600 TS 35 0 17.9000 -110.600 TC 35 17.9000 -110.600 2 3 293
1972258N13258 1972 96 EP MM IVA 1972-09-18 03:00:00 TS 17.9467 -110.740 main 563 554 P________PP___ EP091972 17.9425 -110.735 TS 35 0 17.9425 -110.735 TC 35 17.9638 -110.761 2 3 290
1972258N13258 1972 96 EP MM IVA 1972-09-18 06:00:00 TS 18.0070 -110.907 35 hurdat_epa main 555 546 O________OP___ hurdat_epa EP091972 18.0000 -110.900 TS 35 0 18.0000 -110.900 TC 35 18.0350 -110.935 2 4 294
1972258N13258 1972 96 EP MM IVA 1972-09-18 09:00:00 TS 18.0968 -111.103 main 548 540 P________PP___ EP091972 18.0925 -111.100 TS 35 0 18.0925 -111.100 TC 35 18.1138 -111.117 2 4 297
1972258N13258 1972 96 EP MM IVA 1972-09-18 12:00:00 TS 18.2000 -111.300 35 hurdat_epa main 542 534 O________OO___ hurdat_epa EP091972 18.2000 -111.300 TS 35 0 18.2000 -111.300 TC 35 18.2000 -111.300 2 4 302
1972258N13258 1972 96 EP MM IVA 1972-09-18 15:00:00 TS 18.3001 -111.451 main 537 526 P________PP___ EP091972 18.2999 -111.450 TS 35 0 18.2999 -111.450 TC 35 18.3007 -111.455 2 4 305
1972258N13258 1972 96 EP MM IVA 1972-09-18 18:00:00 TS 18.4014 -111.603 35 1004 hurdat_epa main 530 522 O________OP___ hurdat_epa EP091972 18.4000 -111.600 TS 35 1004 0 18.4000 -111.600 TC 35 1004 18.4072 -111.613 2 4 303
1972258N13258 1972 96 EP MM IVA 1972-09-18 21:00:00 TS 18.5080 -111.786 main 526 519 P________PP___ EP091972 18.5075 -111.785 TS 35 0 18.5075 -111.785 TC 35 18.5100 -111.789 2 4 298
1972258N13258 1972 96 EP MM IVA 1972-09-19 00:00:00 TS 18.6000 -112.000 35 hurdat_epa main 523 522 O________OO___ hurdat_epa EP091972 18.6000 -112.000 TS 35 0 18.6000 -112.000 TC 35 18.6000 -112.000 2 4 290
1972258N13258 1972 96 EP MM IVA 1972-09-19 03:00:00 TS 18.6602 -112.219 main 522 522 P________PP___ EP091972 18.6574 -112.228 TS 35 0 18.6574 -112.228 TC 35 18.6712 -112.183 2 5 283
1972258N13258 1972 96 EP MM IVA 1972-09-19 06:00:00 TS 18.7056 -112.483 35 hurdat_epa main 536 536 O________OP___ hurdat_epa EP091972 18.7000 -112.500 TS 35 0 18.7000 -112.500 TC 35 18.7278 -112.413 2 5 281
1972258N13258 1972 96 EP MM IVA 1972-09-19 09:00:00 TS 18.7597 -112.767 main 542 542 P________PP___ EP091972 18.7570 -112.775 TS 35 0 18.7570 -112.775 TC 35 18.7706 -112.736 2 7 278
1972258N13258 1972 96 EP MM IVA 1972-09-19 12:00:00 TS 18.8000 -113.200 35 hurdat_epa main 566 566 O________OO___ hurdat_epa EP091972 18.8000 -113.200 TS 35 0 18.8000 -113.200 TC 35 18.8000 -113.200 2 11 273
1972258N13258 1972 96 EP MM IVA 1972-09-19 15:00:00 TS 18.8102 -113.880 main 611 611 P________PP___ EP091972 18.8076 -113.875 TS 32 -1 18.8076 -113.875 TC 32 18.8209 -113.901 2 14 270
1972258N13258 1972 96 EP MM IVA 1972-09-19 18:00:00 TS 18.8052 -114.707 30 1007 hurdat_epa main 669 669 O________OP___ hurdat_epa EP091972 18.8000 -114.700 TD 30 1007 -1 18.8000 -114.700 TC 30 1007 18.8260 -114.733 2 16 270
1972258N13258 1972 96 EP MM IVA 1972-09-19 21:00:00 TS 18.8038 -115.584 main 740 740 P________PP___ EP091972 18.8003 -115.580 TD 30 -1 18.8003 -115.580 TC 30 18.8177 -115.598 2 16 270
1972258N13258 1972 96 EP MM IVA 1972-09-20 00:00:00 TS 18.8000 -116.400 30 hurdat_epa main 794 794 O________OO___ hurdat_epa EP091972 18.8000 -116.400 TD 30 -1 18.8000 -116.400 TC 30 18.8000 -116.400 6 13 270
1972258N13258 1972 96 EP MM IVA 1972-09-20 03:00:00 TS 18.8079 -116.991 main 831 831 P________PP___ EP091972 18.8069 -117.002 TD 30 -1 18.8069 -117.002 TC 30 18.8116 -116.946 6 10 270
1972258N13258 1972 96 EP MM IVA 1972-09-20 06:00:00 TS 18.8026 -117.485 30 hurdat_epa main 863 863 O________OP___ hurdat_epa EP091972 18.8000 -117.500 TD 30 -1 18.8000 -117.500 TC 30 18.8131 -117.426 6 9 268
1972258N13258 1972 96 EP MM IVA 1972-09-20 09:00:00 TS 18.7800 -117.941 main 890 890 P________PP___ EP091972 18.7792 -117.947 TD 30 -1 18.7792 -117.947 TC 30 18.7833 -117.918 6 10 264
1972258N13258 1972 96 EP MM IVA 1972-09-20 12:00:00 TS 18.7000 -118.500 30 hurdat_epa main 941 941 O________OO___ hurdat_epa EP091972 18.7000 -118.500 TD 30 -1 18.7000 -118.500 TC 30 18.7000 -118.500 6 13 259
1972258N13258 1972 96 EP MM IVA 1972-09-20 15:00:00 TS 18.5237 -119.335 main 1016 1016 P________PP___ EP091972 18.5304 -119.348 TD 30 -1 18.5304 -119.348 TC 30 18.4969 -119.285 6 17 256
1972258N13258 1972 96 EP MM IVA 1972-09-20 18:00:00 TS 18.2888 -120.273 30 hurdat_epa main 1108 1108 O________OP___ hurdat_epa EP091972 18.3000 -120.300 TD 30 -1 18.3000 -120.300 TC 30 18.2438 -120.164 6 18 254
1972258N13258 1972 96 EP MM IVA 1972-09-20 21:00:00 TS 18.0144 -121.149 main 1193 1193 P________PP___ EP091972 18.0196 -121.165 TD 30 -1 18.0196 -121.165 TC 30 17.9935 -121.085 6 17 253
1972258N13258 1972 96 EP MM IVA 1972-09-21 00:00:00 TS 17.8000 -122.000 30 hurdat_epa main 1280 1280 O________OO___ hurdat_epa EP091972 17.8000 -122.000 TD 30 -1 17.8000 -122.000 TC 30 17.8000 -122.000 6 16 261
1972258N13258 1972 96 EP MM IVA 1972-09-21 03:00:00 TS 17.7589 -122.809 main 1347 1347 P________PP___ EP091972 17.7620 -122.799 TD 30 -1 17.7620 -122.799 TC 30 17.7465 -122.849 6 15 270
1972258N13258 1972 96 EP MM IVA 1972-09-21 06:00:00 TS 17.7908 -123.617 30 hurdat_epa main 1411 1411 O________OP___ hurdat_epa EP091972 17.8000 -123.600 TD 30 -1 17.8000 -123.600 TC 30 17.7538 -123.685 6 16 272
1972258N13258 1972 96 EP MM IVA 1972-09-21 09:00:00 TS 17.8028 -124.467 main 1472 1472 P________PP___ EP091972 17.8074 -124.457 TD 30 -1 17.8074 -124.457 TC 30 17.7842 -124.503 6 16 270
1972258N13258 1972 96 EP MM IVA 1972-09-21 12:00:00 TS 17.8000 -125.300 30 hurdat_epa main 1527 1527 O________OO___ hurdat_epa EP091972 17.8000 -125.300 TD 30 -1 17.8000 -125.300 TC 30 17.8000 -125.300 6 15 269
1972258N13258 1972 96 EP MM IVA 1972-09-21 15:00:00 TS 17.7660 -126.067 main 1585 1585 P________PP___ EP091972 17.7645 -126.065 TD 30 -1 17.7645 -126.065 TC 30 17.7721 -126.073 6 14 266
1972258N13258 1972 96 EP MM IVA 1972-09-21 18:00:00 TS 17.7009 -126.805 30 hurdat_epa main 1645 1645 O________OP___ hurdat_epa EP091972 17.7000 -126.800 TD 30 -1 17.7000 -126.800 TC 30 17.7045 -126.827 6 14 264
1972258N13258 1972 96 EP MM IVA 1972-09-21 21:00:00 TS 17.6085 -127.550 main 1706 1706 P________PP___ EP091972 17.6082 -127.545 TD 30 -1 17.6082 -127.545 TC 30 17.6097 -127.567 6 14 262
1972258N13258 1972 96 EP MM IVA 1972-09-22 00:00:00 TS 17.5000 -128.300 30 hurdat_epa main 1775 O________OO___ hurdat_epa EP091972 17.5000 -128.300 TD 30 -1 17.5000 -128.300 TC 30 17.5000 -128.300 6 14 261

IBTrACS Databaseについて

本データベースは、米国NOAAが公開する1842年以降の世界の熱帯低気圧のベストトラックデータアーカイブInternational Best Track Archive for Climate Stewardship (IBTrACS)を、ウェブで閲覧しやすい形式に変換したものです。

最終更新日:2021-12-01